Wichita, KS

10:00 PM CDT on September 20, 2014 (GMT -0500)
Wichita Mid-Continent | Change Station
CLOSE
Current Station
Airport
Location: Wichita,
Elevation: 1332 ft
Nearby Weather Stations

Elev 1332 ft 37.65 °N, 97.43 °W | Updated 7 minutes ago

Mostly Cloudy
Mostly Cloudy
74 °F
Feels Like 74 °F
N
10
Wind Variable Wind from West

Today
High -- | Low -- °F
--% Chance of Precip.
Yesterday
High -- | Low -- °F
Precip. -- in
7:15 AM 7:29 PM
Waning Crescent, 9% visible
Pressure 29.94 in
Visibility 10.0 miles
Clouds Few 5000 ft
Scattered Clouds 9000 ft
Mostly Cloudy 20000 ft
Dew Point 69 °F
Humidity 85%
Rainfall 0.01 in
Snow Depth Not available.
UV 0 out of 12
Pollen 6.30 out of 12
Air Quality Not available.
Flu Activity Not available.
METAR KICT 210253Z 28009KT 10SM FEW050 SCT090 BKN200 23/21 A2998 RMK AO2 PK WND 01027/0206 RAB12E33 TSE42 SLP138 OCNL LTGIC DSNT NW CB DSNT NW MOVG S P0001 60001 T02330206 50013

More Conditions Fewer Conditions

Pressure 29.94 in
Visibility 10.0 miles
Clouds Few 5000 ft
Scattered Clouds 9000 ft
Mostly Cloudy 20000 ft
Dew Point 69 °F
Humidity 85%
Rainfall 0.01 in
Snow Depth Not available.
UV 0 out of 12
Pollen 6.30 out of 12
Air Quality Not available.
Flu Activity Not available.
METAR KICT 210253Z 28009KT 10SM FEW050 SCT090 BKN200 23/21 A2998 RMK AO2 PK WND 01027/0206 RAB12E33 TSE42 SLP138 OCNL LTGIC DSNT NW CB DSNT NW MOVG S P0001 60001 T02330206 50013

More Conditions Fewer Conditions

10-Day Weather Forecast

Almanac

Astronomy

Sep. 20, 2014 Rise Set
Actual Time 7:15 AM CDT 7:29 PM CDT
Civil Twilight 6:49 AM CDT 7:55 PM CDT
Nautical Twilight 6:19 AM CDT 8:26 PM CDT
Astronomical Twilight 5:47 AM CDT 8:57 PM CDT
Moon 3:59 AM CDT (9/20) 5:31 PM CDT (9/20)
Length of Visible Light 13h 06m
Length of Day
12h 13m
Tomorrow will be 2m 24s shorter.
Waning Crescent, 9% of the Moon is Illuminated
Today
Waning Crescent
Sep 24
New
Oct 1
First Quarter
Oct 8
Full
Oct 15
Last Quarter

Today's Extremes

State Highs State Lows

Community

WunderPhotos

Upload Photos

1,755,067 photos uploaded!

WunderBlogs® & News

Nearby

Snow Depth

Station Depth Elevation
No new snow has been reported.

Earthquake Activity

City Distance Mag. Time & Date
Medford, Oklahoma 59 miles 3.2 2:10 AM CDT
2014-09-20
Luther, Oklahoma 138 miles 2.7 4:47 PM CDT
2014-09-19
Guthrie, Oklahoma 126 miles 3.6 12:23 PM CDT
2014-09-19
Perry, Oklahoma 101 miles 3.3 12:08 AM CDT
2014-09-19
Minimum magnitude displayed is 2.5.

Coastal Water Temperatures

Place Temperature
No Stations Reporting

Nearby Weather Stations